sensor_id;sensor_type;location;lat;lon;timestamp;P1;durP1;ratioP1;P2;durP2;ratioP2
48367;SDS011;34173;47.446;18.912;2022-09-09T00:04:10;3.45;;;1.85;;
48367;SDS011;34173;47.446;18.912;2022-09-09T00:06:45;3.42;;;1.85;;
48367;SDS011;34173;47.446;18.912;2022-09-09T00:09:18;6.20;;;1.83;;
48367;SDS011;34173;47.446;18.912;2022-09-09T00:14:45;3.53;;;1.92;;
48367;SDS011;34173;47.446;18.912;2022-09-09T00:23:06;3.55;;;2.10;;
48367;SDS011;34173;47.446;18.912;2022-09-09T00:25:34;4.93;;;2.03;;
48367;SDS011;34173;47.446;18.912;2022-09-09T00:28:19;4.93;;;2.25;;
48367;SDS011;34173;47.446;18.912;2022-09-09T00:30:48;4.00;;;2.03;;
48367;SDS011;34173;47.446;18.912;2022-09-09T00:33:19;3.42;;;2.17;;
48367;SDS011;34173;47.446;18.912;2022-09-09T00:35:58;4.12;;;2.20;;
48367;SDS011;34173;47.446;18.912;2022-09-09T00:38:34;3.17;;;1.95;;
48367;SDS011;34173;47.446;18.912;2022-09-09T00:49:38;3.47;;;2.10;;
48367;SDS011;34173;47.446;18.912;2022-09-09T00:57:31;3.75;;;2.00;;
48367;SDS011;34173;47.446;18.912;2022-09-09T01:07:54;3.75;;;1.73;;
48367;SDS011;34173;47.446;18.912;2022-09-09T01:10:27;3.80;;;1.80;;
48367;SDS011;34173;47.446;18.912;2022-09-09T01:13:04;5.45;;;2.00;;
48367;SDS011;34173;47.446;18.912;2022-09-09T01:15:40;4.55;;;1.42;;
48367;SDS011;34173;47.446;18.912;2022-09-09T01:18:10;3.45;;;2.17;;
48367;SDS011;34173;47.446;18.912;2022-09-09T01:26:41;5.22;;;2.12;;
48367;SDS011;34173;47.446;18.912;2022-09-09T01:29:13;4.50;;;2.28;;
48367;SDS011;34173;47.446;18.912;2022-09-09T01:31:51;3.78;;;2.25;;
48367;SDS011;34173;47.446;18.912;2022-09-09T01:34:25;5.70;;;2.20;;
48367;SDS011;34173;47.446;18.912;2022-09-09T01:39:34;4.15;;;2.25;;
48367;SDS011;34173;47.446;18.912;2022-09-09T01:42:03;3.75;;;2.47;;
48367;SDS011;34173;47.446;18.912;2022-09-09T01:44:32;5.12;;;2.65;;
48367;SDS011;34173;47.446;18.912;2022-09-09T01:47:00;4.15;;;2.60;;
48367;SDS011;34173;47.446;18.912;2022-09-09T01:49:28;4.80;;;2.85;;
48367;SDS011;34173;47.446;18.912;2022-09-09T01:51:56;4.10;;;2.47;;
48367;SDS011;34173;47.446;18.912;2022-09-09T01:54:26;4.50;;;2.25;;
48367;SDS011;34173;47.446;18.912;2022-09-09T02:05:49;5.03;;;2.08;;
48367;SDS011;34173;47.446;18.912;2022-09-09T02:08:36;4.00;;;2.30;;
48367;SDS011;34173;47.446;18.912;2022-09-09T02:11:20;3.65;;;2.42;;
48367;SDS011;34173;47.446;18.912;2022-09-09T02:13:51;8.77;;;4.55;;
48367;SDS011;34173;47.446;18.912;2022-09-09T02:16:30;5.18;;;2.33;;
48367;SDS011;34173;47.446;18.912;2022-09-09T02:19:06;5.62;;;2.25;;
48367;SDS011;34173;47.446;18.912;2022-09-09T02:21:37;3.60;;;2.30;;
48367;SDS011;34173;47.446;18.912;2022-09-09T02:24:07;4.70;;;2.85;;
48367;SDS011;34173;47.446;18.912;2022-09-09T02:26:40;4.20;;;2.72;;
48367;SDS011;34173;47.446;18.912;2022-09-09T02:29:12;5.55;;;2.97;;
48367;SDS011;34173;47.446;18.912;2022-09-09T02:31:42;5.00;;;2.70;;
48367;SDS011;34173;47.446;18.912;2022-09-09T02:34:13;4.32;;;3.00;;
48367;SDS011;34173;47.446;18.912;2022-09-09T02:36:42;5.10;;;3.03;;
48367;SDS011;34173;47.446;18.912;2022-09-09T02:39:11;3.55;;;2.30;;
48367;SDS011;34173;47.446;18.912;2022-09-09T02:41:40;5.50;;;2.90;;
48367;SDS011;34173;47.446;18.912;2022-09-09T02:44:10;6.80;;;2.60;;
48367;SDS011;34173;47.446;18.912;2022-09-09T02:49:28;3.47;;;2.47;;
48367;SDS011;34173;47.446;18.912;2022-09-09T02:52:19;5.18;;;2.50;;
48367;SDS011;34173;47.446;18.912;2022-09-09T02:54:49;4.37;;;2.72;;
48367;SDS011;34173;47.446;18.912;2022-09-09T02:57:21;5.20;;;2.47;;
48367;SDS011;34173;47.446;18.912;2022-09-09T02:59:50;5.97;;;2.67;;
48367;SDS011;34173;47.446;18.912;2022-09-09T03:02:20;4.50;;;2.80;;
48367;SDS011;34173;47.446;18.912;2022-09-09T03:04:48;8.88;;;2.47;;
48367;SDS011;34173;47.446;18.912;2022-09-09T03:07:19;3.67;;;2.42;;
48367;SDS011;34173;47.446;18.912;2022-09-09T03:09:47;6.15;;;2.70;;
48367;SDS011;34173;47.446;18.912;2022-09-09T03:12:15;4.05;;;2.37;;
48367;SDS011;34173;47.446;18.912;2022-09-09T03:14:43;4.75;;;2.30;;
48367;SDS011;34173;47.446;18.912;2022-09-09T03:17:12;4.57;;;2.40;;
48367;SDS011;34173;47.446;18.912;2022-09-09T03:19:41;5.37;;;2.65;;
48367;SDS011;34173;47.446;18.912;2022-09-09T03:22:09;5.55;;;2.50;;
48367;SDS011;34173;47.446;18.912;2022-09-09T03:24:39;5.12;;;2.80;;
48367;SDS011;34173;47.446;18.912;2022-09-09T03:27:07;4.90;;;2.80;;
48367;SDS011;34173;47.446;18.912;2022-09-09T03:29:35;4.18;;;2.47;;
48367;SDS011;34173;47.446;18.912;2022-09-09T03:32:03;4.90;;;2.90;;
48367;SDS011;34173;47.446;18.912;2022-09-09T03:34:30;4.87;;;2.67;;
48367;SDS011;34173;47.446;18.912;2022-09-09T03:36:58;4.45;;;2.75;;
48367;SDS011;34173;47.446;18.912;2022-09-09T03:39:27;5.28;;;2.70;;
48367;SDS011;34173;47.446;18.912;2022-09-09T03:41:54;6.07;;;3.10;;
48367;SDS011;34173;47.446;18.912;2022-09-09T03:44:21;6.68;;;3.62;;
48367;SDS011;34173;47.446;18.912;2022-09-09T03:46:49;5.30;;;3.53;;
48367;SDS011;34173;47.446;18.912;2022-09-09T03:49:17;5.47;;;3.80;;
48367;SDS011;34173;47.446;18.912;2022-09-09T03:51:45;8.52;;;3.85;;
48367;SDS011;34173;47.446;18.912;2022-09-09T03:54:13;6.55;;;4.18;;
48367;SDS011;34173;47.446;18.912;2022-09-09T03:56:40;5.22;;;3.75;;
48367;SDS011;34173;47.446;18.912;2022-09-09T03:59:09;5.50;;;3.95;;
48367;SDS011;34173;47.446;18.912;2022-09-09T04:01:37;6.47;;;4.55;;
48367;SDS011;34173;47.446;18.912;2022-09-09T04:04:04;6.68;;;4.25;;
48367;SDS011;34173;47.446;18.912;2022-09-09T04:06:32;6.97;;;4.82;;
48367;SDS011;34173;47.446;18.912;2022-09-09T04:08:59;7.10;;;4.85;;
48367;SDS011;34173;47.446;18.912;2022-09-09T04:11:30;6.82;;;4.75;;
48367;SDS011;34173;47.446;18.912;2022-09-09T04:13:58;7.28;;;5.00;;
48367;SDS011;34173;47.446;18.912;2022-09-09T04:16:25;7.10;;;4.78;;
48367;SDS011;34173;47.446;18.912;2022-09-09T04:18:53;6.47;;;4.62;;
48367;SDS011;34173;47.446;18.912;2022-09-09T04:21:20;7.53;;;4.78;;
48367;SDS011;34173;47.446;18.912;2022-09-09T04:23:48;6.57;;;4.45;;
48367;SDS011;34173;47.446;18.912;2022-09-09T04:26:16;6.87;;;4.32;;
48367;SDS011;34173;47.446;18.912;2022-09-09T04:28:44;16.08;;;4.62;;
48367;SDS011;34173;47.446;18.912;2022-09-09T04:31:15;7.87;;;5.20;;
48367;SDS011;34173;47.446;18.912;2022-09-09T04:33:46;7.78;;;4.80;;
48367;SDS011;34173;47.446;18.912;2022-09-09T04:36:13;8.95;;;5.30;;
48367;SDS011;34173;47.446;18.912;2022-09-09T04:38:41;9.32;;;5.55;;
48367;SDS011;34173;47.446;18.912;2022-09-09T04:41:09;7.18;;;5.00;;
48367;SDS011;34173;47.446;18.912;2022-09-09T04:43:38;6.75;;;5.07;;
48367;SDS011;34173;47.446;18.912;2022-09-09T04:46:06;7.28;;;4.70;;
48367;SDS011;34173;47.446;18.912;2022-09-09T04:48:34;9.07;;;6.12;;
48367;SDS011;34173;47.446;18.912;2022-09-09T04:51:04;8.20;;;4.90;;
48367;SDS011;34173;47.446;18.912;2022-09-09T04:53:33;7.12;;;5.20;;
48367;SDS011;34173;47.446;18.912;2022-09-09T04:56:10;7.87;;;5.18;;
48367;SDS011;34173;47.446;18.912;2022-09-09T04:58:39;6.57;;;4.80;;
48367;SDS011;34173;47.446;18.912;2022-09-09T05:01:14;6.43;;;4.72;;
48367;SDS011;34173;47.446;18.912;2022-09-09T05:03:45;7.03;;;4.93;;
48367;SDS011;34173;47.446;18.912;2022-09-09T05:06:14;7.45;;;4.75;;
48367;SDS011;34173;47.446;18.912;2022-09-09T05:08:44;9.10;;;4.75;;
48367;SDS011;34173;47.446;18.912;2022-09-09T05:13:52;6.32;;;4.57;;
48367;SDS011;34173;47.446;18.912;2022-09-09T05:16:20;7.32;;;4.75;;
48367;SDS011;34173;47.446;18.912;2022-09-09T05:18:48;7.28;;;5.32;;
48367;SDS011;34173;47.446;18.912;2022-09-09T05:21:18;7.62;;;4.93;;
48367;SDS011;34173;47.446;18.912;2022-09-09T05:23:47;6.97;;;5.28;;
48367;SDS011;34173;47.446;18.912;2022-09-09T05:26:16;7.45;;;4.85;;
48367;SDS011;34173;47.446;18.912;2022-09-09T05:28:45;8.35;;;5.35;;
48367;SDS011;34173;47.446;18.912;2022-09-09T05:31:15;7.53;;;5.30;;
48367;SDS011;34173;47.446;18.912;2022-09-09T05:33:44;7.07;;;5.28;;
48367;SDS011;34173;47.446;18.912;2022-09-09T05:36:14;8.45;;;5.12;;
48367;SDS011;34173;47.446;18.912;2022-09-09T05:38:44;7.18;;;5.00;;
48367;SDS011;34173;47.446;18.912;2022-09-09T05:41:13;7.97;;;5.20;;
48367;SDS011;34173;47.446;18.912;2022-09-09T05:43:45;8.07;;;5.60;;
48367;SDS011;34173;47.446;18.912;2022-09-09T05:46:19;7.10;;;4.82;;
48367;SDS011;34173;47.446;18.912;2022-09-09T05:48:48;6.37;;;4.40;;
48367;SDS011;34173;47.446;18.912;2022-09-09T05:51:21;7.95;;;5.32;;
48367;SDS011;34173;47.446;18.912;2022-09-09T05:53:51;6.65;;;5.00;;
48367;SDS011;34173;47.446;18.912;2022-09-09T05:56:20;9.02;;;5.50;;
48367;SDS011;34173;47.446;18.912;2022-09-09T05:58:52;7.37;;;5.05;;
48367;SDS011;34173;47.446;18.912;2022-09-09T06:01:24;7.47;;;5.30;;
48367;SDS011;34173;47.446;18.912;2022-09-09T06:03:54;7.25;;;5.00;;
48367;SDS011;34173;47.446;18.912;2022-09-09T06:06:22;8.18;;;5.12;;
48367;SDS011;34173;47.446;18.912;2022-09-09T06:08:54;9.63;;;5.03;;
48367;SDS011;34173;47.446;18.912;2022-09-09T06:11:25;7.32;;;4.72;;
48367;SDS011;34173;47.446;18.912;2022-09-09T06:13:58;5.37;;;4.18;;
48367;SDS011;34173;47.446;18.912;2022-09-09T06:16:27;6.28;;;4.40;;
48367;SDS011;34173;47.446;18.912;2022-09-09T06:18:56;7.32;;;4.50;;
48367;SDS011;34173;47.446;18.912;2022-09-09T06:21:26;7.25;;;4.85;;
48367;SDS011;34173;47.446;18.912;2022-09-09T06:23:54;7.32;;;4.45;;
48367;SDS011;34173;47.446;18.912;2022-09-09T06:26:29;5.90;;;4.40;;
48367;SDS011;34173;47.446;18.912;2022-09-09T06:28:58;7.30;;;4.20;;
48367;SDS011;34173;47.446;18.912;2022-09-09T06:31:27;7.12;;;4.62;;
48367;SDS011;34173;47.446;18.912;2022-09-09T06:33:59;6.55;;;4.20;;
48367;SDS011;34173;47.446;18.912;2022-09-09T06:36:29;9.93;;;4.35;;
48367;SDS011;34173;47.446;18.912;2022-09-09T06:38:58;5.82;;;3.62;;
48367;SDS011;34173;47.446;18.912;2022-09-09T06:41:27;5.30;;;3.65;;
48367;SDS011;34173;47.446;18.912;2022-09-09T06:43:56;7.93;;;4.05;;
48367;SDS011;34173;47.446;18.912;2022-09-09T06:46:28;5.95;;;3.90;;
48367;SDS011;34173;47.446;18.912;2022-09-09T06:48:59;4.30;;;3.08;;
48367;SDS011;34173;47.446;18.912;2022-09-09T06:51:31;5.40;;;3.78;;
48367;SDS011;34173;47.446;18.912;2022-09-09T06:54:02;4.95;;;3.28;;
48367;SDS011;34173;47.446;18.912;2022-09-09T06:56:32;4.78;;;3.12;;
48367;SDS011;34173;47.446;18.912;2022-09-09T06:59:05;4.68;;;3.50;;
48367;SDS011;34173;47.446;18.912;2022-09-09T07:01:36;4.82;;;3.08;;
48367;SDS011;34173;47.446;18.912;2022-09-09T07:04:08;4.60;;;2.80;;
48367;SDS011;34173;47.446;18.912;2022-09-09T07:06:38;6.50;;;3.37;;
48367;SDS011;34173;47.446;18.912;2022-09-09T07:09:26;5.35;;;3.20;;
48367;SDS011;34173;47.446;18.912;2022-09-09T07:11:54;7.10;;;3.83;;
48367;SDS011;34173;47.446;18.912;2022-09-09T07:14:22;5.85;;;3.80;;
48367;SDS011;34173;47.446;18.912;2022-09-09T07:16:51;5.78;;;3.78;;
48367;SDS011;34173;47.446;18.912;2022-09-09T07:19:24;5.35;;;3.05;;
48367;SDS011;34173;47.446;18.912;2022-09-09T07:21:51;5.50;;;3.28;;
48367;SDS011;34173;47.446;18.912;2022-09-09T07:24:20;6.03;;;3.30;;
48367;SDS011;34173;47.446;18.912;2022-09-09T07:26:48;5.53;;;3.45;;
48367;SDS011;34173;47.446;18.912;2022-09-09T07:29:16;5.82;;;3.30;;
48367;SDS011;34173;47.446;18.912;2022-09-09T07:31:47;5.90;;;3.25;;
48367;SDS011;34173;47.446;18.912;2022-09-09T07:34:16;5.25;;;3.25;;
48367;SDS011;34173;47.446;18.912;2022-09-09T07:36:44;5.22;;;2.80;;
48367;SDS011;34173;47.446;18.912;2022-09-09T07:39:12;4.85;;;2.65;;
48367;SDS011;34173;47.446;18.912;2022-09-09T07:41:45;3.42;;;2.58;;
48367;SDS011;34173;47.446;18.912;2022-09-09T07:44:15;5.85;;;2.85;;
48367;SDS011;34173;47.446;18.912;2022-09-09T07:46:45;5.95;;;2.50;;
48367;SDS011;34173;47.446;18.912;2022-09-09T07:49:14;3.40;;;2.30;;
48367;SDS011;34173;47.446;18.912;2022-09-09T07:51:43;4.15;;;2.17;;
48367;SDS011;34173;47.446;18.912;2022-09-09T07:54:13;3.25;;;1.90;;
48367;SDS011;34173;47.446;18.912;2022-09-09T07:56:42;3.58;;;2.10;;
48367;SDS011;34173;47.446;18.912;2022-09-09T07:59:10;3.87;;;2.00;;
48367;SDS011;34173;47.446;18.912;2022-09-09T08:01:47;3.17;;;1.90;;
48367;SDS011;34173;47.446;18.912;2022-09-09T08:04:18;3.67;;;1.70;;
48367;SDS011;34173;47.446;18.912;2022-09-09T08:06:48;2.72;;;1.80;;
48367;SDS011;34173;47.446;18.912;2022-09-09T08:09:17;5.57;;;1.85;;
48367;SDS011;34173;47.446;18.912;2022-09-09T08:11:45;2.70;;;1.40;;
48367;SDS011;34173;47.446;18.912;2022-09-09T08:14:14;2.95;;;1.40;;
48367;SDS011;34173;47.446;18.912;2022-09-09T08:16:43;2.15;;;1.35;;
48367;SDS011;34173;47.446;18.912;2022-09-09T08:19:14;2.75;;;1.30;;
48367;SDS011;34173;47.446;18.912;2022-09-09T08:21:44;3.85;;;1.27;;
48367;SDS011;34173;47.446;18.912;2022-09-09T08:24:12;2.35;;;1.25;;
48367;SDS011;34173;47.446;18.912;2022-09-09T08:26:45;2.78;;;1.37;;
48367;SDS011;34173;47.446;18.912;2022-09-09T08:29:15;2.58;;;1.30;;
48367;SDS011;34173;47.446;18.912;2022-09-09T08:31:45;3.58;;;1.25;;
48367;SDS011;34173;47.446;18.912;2022-09-09T08:34:15;3.58;;;1.37;;
48367;SDS011;34173;47.446;18.912;2022-09-09T08:36:45;1.90;;;1.50;;
48367;SDS011;34173;47.446;18.912;2022-09-09T08:39:14;3.05;;;1.35;;
48367;SDS011;34173;47.446;18.912;2022-09-09T08:41:46;2.45;;;1.10;;
48367;SDS011;34173;47.446;18.912;2022-09-09T08:52:36;5.85;;;1.20;;
48367;SDS011;34173;47.446;18.912;2022-09-09T08:55:15;2.53;;;1.10;;
48367;SDS011;34173;47.446;18.912;2022-09-09T08:57:54;1.55;;;0.93;;
48367;SDS011;34173;47.446;18.912;2022-09-09T09:00:26;2.95;;;1.10;;
48367;SDS011;34173;47.446;18.912;2022-09-09T09:03:37;2.40;;;1.00;;
48367;SDS011;34173;47.446;18.912;2022-09-09T09:09:01;3.78;;;1.17;;
48367;SDS011;34173;47.446;18.912;2022-09-09T09:11:50;2.37;;;0.98;;
48367;SDS011;34173;47.446;18.912;2022-09-09T09:14:23;2.45;;;1.05;;
48367;SDS011;34173;47.446;18.912;2022-09-09T09:17:05;5.40;;;1.00;;
48367;SDS011;34173;47.446;18.912;2022-09-09T09:19:38;1.65;;;0.88;;
48367;SDS011;34173;47.446;18.912;2022-09-09T09:22:21;2.15;;;1.00;;
48367;SDS011;34173;47.446;18.912;2022-09-09T09:24:56;2.08;;;1.45;;
48367;SDS011;34173;47.446;18.912;2022-09-09T09:30:20;4.65;;;1.00;;
48367;SDS011;34173;47.446;18.912;2022-09-09T09:33:05;3.35;;;1.05;;
48367;SDS011;34173;47.446;18.912;2022-09-09T09:35:36;3.10;;;0.80;;
48367;SDS011;34173;47.446;18.912;2022-09-09T09:38:13;1.75;;;0.70;;
48367;SDS011;34173;47.446;18.912;2022-09-09T09:41:04;2.22;;;0.90;;
48367;SDS011;34173;47.446;18.912;2022-09-09T09:43:33;2.58;;;0.62;;
48367;SDS011;34173;47.446;18.912;2022-09-09T09:46:03;1.60;;;0.80;;
48367;SDS011;34173;47.446;18.912;2022-09-09T09:48:44;1.87;;;0.80;;
48367;SDS011;34173;47.446;18.912;2022-09-09T09:51:14;1.85;;;0.70;;
48367;SDS011;34173;47.446;18.912;2022-09-09T09:53:44;1.37;;;0.57;;
48367;SDS011;34173;47.446;18.912;2022-09-09T09:56:13;1.40;;;0.65;;
48367;SDS011;34173;47.446;18.912;2022-09-09T10:01:20;2.67;;;0.70;;
48367;SDS011;34173;47.446;18.912;2022-09-09T10:03:52;0.90;;;0.65;;
48367;SDS011;34173;47.446;18.912;2022-09-09T10:06:40;1.95;;;0.70;;
48367;SDS011;34173;47.446;18.912;2022-09-09T10:09:24;1.98;;;0.77;;
48367;SDS011;34173;47.446;18.912;2022-09-09T10:11:59;2.72;;;0.85;;
48367;SDS011;34173;47.446;18.912;2022-09-09T10:14:39;1.83;;;0.65;;
48367;SDS011;34173;47.446;18.912;2022-09-09T10:20:15;1.52;;;0.60;;
48367;SDS011;34173;47.446;18.912;2022-09-09T10:22:52;3.05;;;0.60;;
48367;SDS011;34173;47.446;18.912;2022-09-09T10:33:30;1.12;;;0.40;;
48367;SDS011;34173;47.446;18.912;2022-09-09T10:36:13;0.70;;;0.40;;
48367;SDS011;34173;47.446;18.912;2022-09-09T10:38:45;1.10;;;0.52;;
48367;SDS011;34173;47.446;18.912;2022-09-09T10:50:03;1.00;;;0.50;;
48367;SDS011;34173;47.446;18.912;2022-09-09T10:52:59;3.20;;;0.60;;
48367;SDS011;34173;47.446;18.912;2022-09-09T10:55:33;1.55;;;0.50;;
48367;SDS011;34173;47.446;18.912;2022-09-09T10:58:04;1.45;;;0.52;;
48367;SDS011;34173;47.446;18.912;2022-09-09T11:03:04;4.75;;;1.00;;
48367;SDS011;34173;47.446;18.912;2022-09-09T11:05:43;1.25;;;0.40;;
48367;SDS011;34173;47.446;18.912;2022-09-09T11:08:14;3.62;;;0.60;;
48367;SDS011;34173;47.446;18.912;2022-09-09T11:10:46;1.23;;;0.40;;
48367;SDS011;34173;47.446;18.912;2022-09-09T11:13:24;3.35;;;0.70;;
48367;SDS011;34173;47.446;18.912;2022-09-09T11:16:39;2.80;;;0.50;;
48367;SDS011;34173;47.446;18.912;2022-09-09T11:21:53;1.65;;;0.80;;
48367;SDS011;34173;47.446;18.912;2022-09-09T11:24:23;1.08;;;0.55;;
48367;SDS011;34173;47.446;18.912;2022-09-09T11:27:07;1.45;;;0.70;;
48367;SDS011;34173;47.446;18.912;2022-09-09T11:32:34;2.37;;;0.82;;
48367;SDS011;34173;47.446;18.912;2022-09-09T11:40:55;2.05;;;0.60;;
48367;SDS011;34173;47.446;18.912;2022-09-09T11:43:27;2.42;;;0.70;;
48367;SDS011;34173;47.446;18.912;2022-09-09T11:45:58;4.25;;;0.70;;
48367;SDS011;34173;47.446;18.912;2022-09-09T11:48:45;1.23;;;0.60;;
48367;SDS011;34173;47.446;18.912;2022-09-09T11:51:26;1.37;;;0.70;;
48367;SDS011;34173;47.446;18.912;2022-09-09T11:56:26;5.85;;;0.80;;
48367;SDS011;34173;47.446;18.912;2022-09-09T11:59:27;2.72;;;0.80;;
48367;SDS011;34173;47.446;18.912;2022-09-09T12:01:57;2.37;;;0.62;;
48367;SDS011;34173;47.446;18.912;2022-09-09T12:04:33;1.10;;;0.65;;
48367;SDS011;34173;47.446;18.912;2022-09-09T12:12:30;1.40;;;0.75;;
48367;SDS011;34173;47.446;18.912;2022-09-09T12:15:00;0.82;;;0.50;;
48367;SDS011;34173;47.446;18.912;2022-09-09T12:17:31;4.20;;;0.90;;
48367;SDS011;34173;47.446;18.912;2022-09-09T12:22:47;2.90;;;0.70;;
48367;SDS011;34173;47.446;18.912;2022-09-09T12:25:40;1.15;;;0.70;;
48367;SDS011;34173;47.446;18.912;2022-09-09T12:28:17;3.30;;;0.60;;
48367;SDS011;34173;47.446;18.912;2022-09-09T12:33:23;1.33;;;0.50;;
48367;SDS011;34173;47.446;18.912;2022-09-09T12:35:53;3.35;;;0.65;;
48367;SDS011;34173;47.446;18.912;2022-09-09T12:38:26;1.10;;;0.55;;
48367;SDS011;34173;47.446;18.912;2022-09-09T12:40:58;2.80;;;0.75;;
48367;SDS011;34173;47.446;18.912;2022-09-09T12:43:26;2.05;;;0.70;;
48367;SDS011;34173;47.446;18.912;2022-09-09T12:45:59;1.15;;;0.60;;
48367;SDS011;34173;47.446;18.912;2022-09-09T12:50:58;2.42;;;0.68;;
48367;SDS011;34173;47.446;18.912;2022-09-09T12:53:34;2.55;;;0.73;;
48367;SDS011;34173;47.446;18.912;2022-09-09T12:56:06;2.50;;;0.80;;
48367;SDS011;34173;47.446;18.912;2022-09-09T12:58:36;1.67;;;0.70;;
48367;SDS011;34173;47.446;18.912;2022-09-09T13:01:04;1.98;;;0.80;;
48367;SDS011;34173;47.446;18.912;2022-09-09T13:03:33;0.88;;;0.50;;
48367;SDS011;34173;47.446;18.912;2022-09-09T13:06:11;1.25;;;0.50;;
48367;SDS011;34173;47.446;18.912;2022-09-09T13:08:41;1.75;;;0.68;;
48367;SDS011;34173;47.446;18.912;2022-09-09T13:11:10;0.60;;;0.50;;
48367;SDS011;34173;47.446;18.912;2022-09-09T13:13:41;0.85;;;0.60;;
48367;SDS011;34173;47.446;18.912;2022-09-09T13:16:23;1.12;;;0.60;;
48367;SDS011;34173;47.446;18.912;2022-09-09T13:18:53;1.42;;;0.40;;
48367;SDS011;34173;47.446;18.912;2022-09-09T13:21:36;1.17;;;0.45;;
48367;SDS011;34173;47.446;18.912;2022-09-09T13:27:01;1.48;;;0.70;;
48367;SDS011;34173;47.446;18.912;2022-09-09T13:29:51;1.10;;;0.60;;
48367;SDS011;34173;47.446;18.912;2022-09-09T13:32:23;1.10;;;0.50;;
48367;SDS011;34173;47.446;18.912;2022-09-09T13:34:58;1.77;;;0.50;;
48367;SDS011;34173;47.446;18.912;2022-09-09T13:37:37;1.87;;;0.50;;
48367;SDS011;34173;47.446;18.912;2022-09-09T13:40:06;1.15;;;0.60;;
48367;SDS011;34173;47.446;18.912;2022-09-09T13:42:44;4.87;;;0.88;;
48367;SDS011;34173;47.446;18.912;2022-09-09T13:45:19;3.10;;;0.60;;
48367;SDS011;34173;47.446;18.912;2022-09-09T13:47:49;1.20;;;0.52;;
48367;SDS011;34173;47.446;18.912;2022-09-09T13:50:27;1.62;;;0.50;;
48367;SDS011;34173;47.446;18.912;2022-09-09T13:52:56;2.00;;;0.50;;
48367;SDS011;34173;47.446;18.912;2022-09-09T13:55:28;3.05;;;0.50;;
48367;SDS011;34173;47.446;18.912;2022-09-09T13:57:56;0.80;;;0.40;;
48367;SDS011;34173;47.446;18.912;2022-09-09T14:00:29;1.10;;;0.50;;
48367;SDS011;34173;47.446;18.912;2022-09-09T14:02:58;2.80;;;0.80;;
48367;SDS011;34173;47.446;18.912;2022-09-09T14:05:32;0.82;;;0.50;;
48367;SDS011;34173;47.446;18.912;2022-09-09T14:08:00;1.95;;;0.50;;
48367;SDS011;34173;47.446;18.912;2022-09-09T14:10:30;3.62;;;0.70;;
48367;SDS011;34173;47.446;18.912;2022-09-09T14:12:58;2.25;;;0.80;;
48367;SDS011;34173;47.446;18.912;2022-09-09T14:15:25;2.35;;;0.95;;
48367;SDS011;34173;47.446;18.912;2022-09-09T14:17:54;2.03;;;0.75;;
48367;SDS011;34173;47.446;18.912;2022-09-09T14:20:22;2.47;;;0.80;;
48367;SDS011;34173;47.446;18.912;2022-09-09T14:22:49;1.75;;;0.70;;
48367;SDS011;34173;47.446;18.912;2022-09-09T14:25:17;3.30;;;0.43;;
48367;SDS011;34173;47.446;18.912;2022-09-09T14:27:44;1.80;;;0.50;;
48367;SDS011;34173;47.446;18.912;2022-09-09T14:30:13;2.15;;;0.55;;
48367;SDS011;34173;47.446;18.912;2022-09-09T14:32:40;2.90;;;1.02;;
48367;SDS011;34173;47.446;18.912;2022-09-09T14:35:08;3.90;;;0.80;;
48367;SDS011;34173;47.446;18.912;2022-09-09T14:37:35;2.10;;;0.55;;
48367;SDS011;34173;47.446;18.912;2022-09-09T14:40:03;3.28;;;0.98;;
48367;SDS011;34173;47.446;18.912;2022-09-09T14:42:31;1.98;;;0.60;;
48367;SDS011;34173;47.446;18.912;2022-09-09T14:44:58;1.58;;;0.62;;
48367;SDS011;34173;47.446;18.912;2022-09-09T14:47:26;1.58;;;0.62;;
48367;SDS011;34173;47.446;18.912;2022-09-09T14:49:53;0.90;;;0.70;;
48367;SDS011;34173;47.446;18.912;2022-09-09T14:52:22;1.98;;;0.62;;
48367;SDS011;34173;47.446;18.912;2022-09-09T14:54:52;1.40;;;0.52;;
48367;SDS011;34173;47.446;18.912;2022-09-09T14:57:19;3.05;;;0.70;;
48367;SDS011;34173;47.446;18.912;2022-09-09T14:59:47;5.57;;;0.93;;
48367;SDS011;34173;47.446;18.912;2022-09-09T15:02:17;2.17;;;0.88;;
48367;SDS011;34173;47.446;18.912;2022-09-09T15:04:45;3.15;;;0.80;;
48367;SDS011;34173;47.446;18.912;2022-09-09T15:07:15;4.18;;;1.20;;
48367;SDS011;34173;47.446;18.912;2022-09-09T15:09:43;10.75;;;1.37;;
48367;SDS011;34173;47.446;18.912;2022-09-09T15:12:11;5.05;;;0.80;;
48367;SDS011;34173;47.446;18.912;2022-09-09T15:14:39;2.60;;;0.80;;
48367;SDS011;34173;47.446;18.912;2022-09-09T15:17:06;5.03;;;0.98;;
48367;SDS011;34173;47.446;18.912;2022-09-09T15:19:34;3.97;;;0.90;;
48367;SDS011;34173;47.446;18.912;2022-09-09T15:22:02;2.25;;;0.55;;
48367;SDS011;34173;47.446;18.912;2022-09-09T15:24:32;3.17;;;0.70;;
48367;SDS011;34173;47.446;18.912;2022-09-09T15:27:00;3.47;;;0.73;;
48367;SDS011;34173;47.446;18.912;2022-09-09T15:29:28;2.85;;;0.65;;
48367;SDS011;34173;47.446;18.912;2022-09-09T15:31:55;2.75;;;0.50;;
48367;SDS011;34173;47.446;18.912;2022-09-09T15:34:23;1.40;;;0.60;;
48367;SDS011;34173;47.446;18.912;2022-09-09T15:36:51;3.05;;;1.05;;
48367;SDS011;34173;47.446;18.912;2022-09-09T15:39:18;2.60;;;0.62;;
48367;SDS011;34173;47.446;18.912;2022-09-09T15:41:46;4.35;;;0.90;;
48367;SDS011;34173;47.446;18.912;2022-09-09T15:44:14;3.72;;;0.73;;
48367;SDS011;34173;47.446;18.912;2022-09-09T15:46:46;2.53;;;0.60;;
48367;SDS011;34173;47.446;18.912;2022-09-09T15:49:20;4.50;;;0.80;;
48367;SDS011;34173;47.446;18.912;2022-09-09T15:51:53;1.23;;;0.50;;
48367;SDS011;34173;47.446;18.912;2022-09-09T15:54:26;4.70;;;1.10;;
48367;SDS011;34173;47.446;18.912;2022-09-09T15:56:57;1.65;;;0.60;;
48367;SDS011;34173;47.446;18.912;2022-09-09T15:59:26;2.67;;;0.65;;
48367;SDS011;34173;47.446;18.912;2022-09-09T16:01:55;2.15;;;0.80;;
48367;SDS011;34173;47.446;18.912;2022-09-09T16:04:23;1.33;;;0.40;;
48367;SDS011;34173;47.446;18.912;2022-09-09T16:06:52;1.12;;;0.57;;
48367;SDS011;34173;47.446;18.912;2022-09-09T16:09:26;2.60;;;0.88;;
48367;SDS011;34173;47.446;18.912;2022-09-09T16:11:58;1.85;;;0.60;;
48367;SDS011;34173;47.446;18.912;2022-09-09T16:14:28;3.35;;;0.70;;
48367;SDS011;34173;47.446;18.912;2022-09-09T16:16:55;3.42;;;0.90;;
48367;SDS011;34173;47.446;18.912;2022-09-09T16:19:26;2.95;;;0.80;;
48367;SDS011;34173;47.446;18.912;2022-09-09T16:21:53;2.95;;;0.70;;
48367;SDS011;34173;47.446;18.912;2022-09-09T16:24:21;2.08;;;0.70;;
48367;SDS011;34173;47.446;18.912;2022-09-09T16:26:50;4.20;;;0.85;;
48367;SDS011;34173;47.446;18.912;2022-09-09T16:29:18;4.12;;;1.00;;
48367;SDS011;34173;47.446;18.912;2022-09-09T16:31:47;5.30;;;1.20;;
48367;SDS011;34173;47.446;18.912;2022-09-09T16:34:15;4.57;;;1.17;;
48367;SDS011;34173;47.446;18.912;2022-09-09T16:36:45;3.25;;;1.15;;
48367;SDS011;34173;47.446;18.912;2022-09-09T16:39:14;2.70;;;1.10;;
48367;SDS011;34173;47.446;18.912;2022-09-09T16:41:44;3.50;;;1.30;;
48367;SDS011;34173;47.446;18.912;2022-09-09T16:44:13;3.28;;;1.00;;
48367;SDS011;34173;47.446;18.912;2022-09-09T16:46:42;4.32;;;1.40;;
48367;SDS011;34173;47.446;18.912;2022-09-09T16:49:11;5.07;;;1.75;;
48367;SDS011;34173;47.446;18.912;2022-09-09T16:51:41;3.65;;;0.82;;
48367;SDS011;34173;47.446;18.912;2022-09-09T16:54:10;4.90;;;1.35;;
48367;SDS011;34173;47.446;18.912;2022-09-09T16:56:39;6.20;;;1.08;;
48367;SDS011;34173;47.446;18.912;2022-09-09T16:59:10;4.47;;;0.90;;
48367;SDS011;34173;47.446;18.912;2022-09-09T17:01:42;5.00;;;0.98;;
48367;SDS011;34173;47.446;18.912;2022-09-09T17:04:12;5.30;;;0.93;;